Thunder radar more information blitzortung!


Radar de pluja more information rain snow radar


Visita la nostra xarxa de llocs de meteo:

Template documentation
and downloads

And another site



No particular awareness of the weather is required.    There are no Weather-warnings

Pagina Historial Weather Underground text

Diari Resum Juny 1, 2017 Unitats:  Imperial    Mètric   Tant
« Previous Dia
SegĂźent Dia »
Diari Setmana Mensual Anual Personalitzada
  Maxima: Minima: Media:
Temperatura: TemperatureC °F 15.7 °F 24 °F
Punt de rosada: DewpointC °F 7.6 °F 10 °F
Humitat: Humidity % 29 % 43 %
Wind Speed: WindSpeedKMH mph 0.0 mph 6.4 mph
RĂ fegues de vent: WindSpeedGustKMH mph - -
Vent:- - South
Pression baro: PressurehPa in 1015.8 in -
Precipitacions: 0.0 in    
Historical Graphs
 
 
Dades de taula per Juny 1, 2017
Temps Temperatura Punt de rosada Pression baro Vent Wind Speed RĂ fegues de vent Humitat Rainfall Rate (Hourly)
TemperatureC °F DewpointC °F PressurehPa in Calm     Humidity % HourlyPrecipMM in
00:01 18.9 °F 10.4 °F 1019.9 in Calm     58 % 0.0 in
00:05 16.5 °F 9.4 °F 1017.8 in East 1.6 mph 3.2 mph 63 % 0.0 in
00:06 18.9 °F 10.4 °F 1019.9 in Calm     58 % 0.0 in
00:15 16.4 °F 9.3 °F 1017.8 in Calm   3.2 mph 63 % 0.0 in
00:25 16.2 °F 9.2 °F 1017.8 in Calm   1.6 mph 63 % 0.0 in
00:35 16.0 °F 8.9 °F 1016.8 in Calm   3.2 mph 63 % 0.0 in
00:45 16.0 °F 8.9 °F 1016.8 in Calm     63 % 0.0 in
00:55 15.8 °F 8.8 °F 1017.8 in Calm     63 % 0.0 in
01:05 15.8 °F 9.0 °F 1017.8 in Calm     64 % 0.0 in
01:15 15.8 °F 9.0 °F 1017.8 in Calm   1.6 mph 64 % 0.0 in
01:25 15.9 °F 8.8 °F 1017.8 in NNE 1.6 mph 1.6 mph 63 % 0.0 in
01:35 16.1 °F 9.3 °F 1017.8 in North 1.6 mph 1.6 mph 64 % 0.0 in
01:45 16.0 °F 9.2 °F 1017.8 in Calm     64 % 0.0 in
01:55 15.8 °F 9.2 °F 1017.8 in Calm     65 % 0.0 in
02:05 15.7 °F 8.9 °F 1017.8 in NW 1.6 mph 1.6 mph 64 % 0.0 in
02:15 15.8 °F 9.0 °F 1017.8 in Calm   1.6 mph 64 % 0.0 in
02:25 16.3 °F 9.2 °F 1018.8 in WSW 1.6 mph 3.2 mph 63 % 0.0 in
02:35 17.1 °F 10.0 °F 1018.8 in Calm   1.6 mph 63 % 0.0 in
02:45 17.6 °F 10.2 °F 1018.8 in Calm   3.2 mph 62 % 0.0 in
02:55 18.0 °F 10.1 °F 1018.8 in SE 1.6 mph 3.2 mph 60 % 0.0 in
03:05 18.1 °F 10.2 °F 1018.8 in SSE 1.6 mph 3.2 mph 60 % 0.0 in
03:15 18.5 °F 10.3 °F 1018.8 in Calm   3.2 mph 59 % 0.0 in
03:25 18.7 °F 10.5 °F 1018.8 in ENE 1.6 mph 4.8 mph 59 % 0.0 in
03:35 19.0 °F 10.6 °F 1018.8 in NE 1.6 mph 4.8 mph 58 % 0.0 in
03:45 19.8 °F 11.3 °F 1018.8 in NE 1.6 mph 3.2 mph 58 % 0.0 in
04:05 20.4 °F 11.3 °F 1018.8 in NNE 3.2 mph 4.8 mph 56 % 0.0 in
04:15 20.7 °F 11.6 °F 1018.8 in NE 4.8 mph 4.8 mph 56 % 0.0 in
04:25 20.9 °F 11.5 °F 1018.8 in NNE 4.8 mph 4.8 mph 55 % 0.0 in
04:35 21.4 °F 11.4 °F 1018.8 in NNE 4.8 mph 6.4 mph 53 % 0.0 in
04:45 22.1 °F 12.1 °F 1018.8 in NE 3.2 mph 4.8 mph 53 % 0.0 in
04:55 22.1 °F 11.5 °F 1018.8 in ENE 1.6 mph 6.4 mph 51 % 0.0 in
05:05 23.3 °F 12.3 °F 1018.8 in ENE 1.6 mph 1.6 mph 50 % 0.0 in
05:15 23.7 °F 12.3 °F 1018.8 in Calm   4.8 mph 49 % 0.0 in
05:25 23.4 °F 11.8 °F 1018.8 in ENE 1.6 mph 6.4 mph 48 % 0.0 in
05:35 23.6 °F 11.6 °F 1018.8 in ENE 4.8 mph 6.4 mph 47 % 0.0 in
05:45 24.4 °F 12.0 °F 1018.8 in ESE 3.2 mph 4.8 mph 46 % 0.0 in
05:55 25.2 °F 12.4 °F 1018.8 in SSE 1.6 mph 6.4 mph 45 % 0.0 in
06:05 25.5 °F 12.3 °F 1018.8 in SW 1.6 mph 3.2 mph 44 % 0.0 in
11:08 26.0 °F 12.8 °F 1018.8 in SW 6.9 mph 6.9 mph 44 % 0.0 in
11:13 25.3 °F 11.8 °F 1018.8 in SE 5.6 mph 5.6 mph 43 % 0.0 in
11:18 25.9 °F 12.3 °F 1018.8 in SSW 5.6 mph 5.6 mph 43 % 0.0 in
11:23 25.7 °F 12.2 °F 1018.8 in West 7.9 mph 7.9 mph 43 % 0.0 in
11:28 25.4 °F 11.9 °F 1018.8 in WSW 9.3 mph 9.3 mph 43 % 0.0 in
11:33 25.2 °F 11.7 °F 1018.8 in WSW 9.3 mph 9.3 mph 43 % 0.0 in
11:38 25.3 °F 11.4 °F 1018.8 in SW 9.3 mph 9.3 mph 42 % 0.0 in
11:43 25.7 °F 11.8 °F 1018.8 in SSW 7.4 mph 7.4 mph 42 % 0.0 in
11:48 25.6 °F 11.4 °F 1018.8 in SW 9.3 mph 9.3 mph 41 % 0.0 in
11:53 26.4 °F 12.1 °F 1018.8 in WSW 1.9 mph   41 % 0.0 in
11:58 26.1 °F 11.8 °F 1018.8 in SW 7.4 mph 7.4 mph 41 % 0.0 in
12:03 26.5 °F 11.8 °F 1018.8 in ESE 9.3 mph 9.3 mph 40 % 0.0 in
12:04 26.5 °F 11.8 °F 1018.8 in NE 6.9 mph 6.9 mph 40 % 0.0 in
12:09 25.7 °F 10.7 °F 1018.8 in ESE 11.1 mph 11.1 mph 39 % 0.0 in
12:14 26.7 °F 12.0 °F 1018.8 in WSW 7.4 mph 7.4 mph 40 % 0.0 in
12:19 27.5 °F 11.9 °F 1018.8 in SW 7.4 mph 7.4 mph 38 % 0.0 in
12:24 27.0 °F 11.4 °F 1018.8 in WNW 5.6 mph 5.6 mph 38 % 0.0 in
12:29 27.2 °F 11.7 °F 1018.8 in SSW 3.7 mph 3.7 mph 38 % 0.0 in
12:34 27.3 °F 11.7 °F 1018.8 in SE 7.4 mph 7.4 mph 38 % 0.0 in
12:39 27.5 °F 11.9 °F 1018.8 in SSE 14.8 mph 14.8 mph 38 % 0.0 in
12:44 27.7 °F 11.7 °F 1018.8 in ESE 3.7 mph 3.7 mph 37 % 0.0 in
12:49 27.4 °F 11.8 °F 1018.8 in SSE 9.3 mph 9.3 mph 38 % 0.0 in
12:54 26.6 °F 11.5 °F 1018.8 in ENE 5.8 mph 5.8 mph 39 % 0.0 in
12:59 27.2 °F 12.1 °F 1018.8 in West 11.1 mph 11.1 mph 39 % 0.0 in
13:04 27.7 °F 12.5 °F 1018.8 in SE 7.4 mph 7.4 mph 39 % 0.0 in
13:09 27.5 °F 12.3 °F 1018.8 in ESE 9.7 mph 9.7 mph 39 % 0.0 in
13:14 26.9 °F 11.8 °F 1018.8 in SSE 14.8 mph 14.8 mph 39 % 0.0 in
13:19 26.8 °F 11.7 °F 1017.8 in NNE 14.8 mph 14.8 mph 39 % 0.0 in
13:24 26.5 °F 11.4 °F 1017.8 in ENE 11.1 mph 11.1 mph 39 % 0.0 in
13:29 26.7 °F 11.6 °F 1017.8 in ESE 16.7 mph 16.7 mph 39 % 0.0 in
13:34 26.8 °F 11.3 °F 1017.8 in ENE 13.0 mph 13.0 mph 38 % 0.0 in
13:39 27.7 °F 12.1 °F 1017.8 in South 5.6 mph 5.6 mph 38 % 0.0 in
13:44 28.5 °F 12.4 °F 1017.8 in South 9.3 mph 9.3 mph 37 % 0.0 in
13:49 28.5 °F 12.0 °F 1016.8 in SSE 12.2 mph 12.2 mph 36 % 0.0 in
13:54 29.0 °F 12.0 °F 1016.8 in SW 9.3 mph 9.3 mph 35 % 0.0 in
13:59 29.2 °F 12.2 °F 1016.8 in SW 13.0 mph 13.0 mph 35 % 0.0 in
14:04 29.2 °F 12.2 °F 1017.8 in SSE 9.3 mph 9.3 mph 35 % 0.0 in
14:09 28.6 °F 11.6 °F 1017.8 in SW 13.0 mph 13.0 mph 35 % 0.0 in
14:14 28.8 °F 10.9 °F 1017.8 in South 6.1 mph 6.1 mph 33 % 0.0 in
14:19 29.0 °F 11.1 °F 1017.8 in SSW 3.9 mph 3.9 mph 33 % 0.0 in
14:24 29.0 °F 11.1 °F 1017.8 in SSE 11.1 mph 11.1 mph 33 % 0.0 in
14:29 28.7 °F 11.3 °F 1017.8 in SW 16.7 mph 16.7 mph 34 % 0.0 in
14:34 29.1 °F 10.7 °F 1017.8 in West 12.2 mph 12.2 mph 32 % 0.0 in
14:39 28.7 °F 10.4 °F 1017.8 in South 5.6 mph 5.6 mph 32 % 0.0 in
14:44 29.0 °F 10.6 °F 1017.8 in WSW 9.3 mph 9.3 mph 32 % 0.0 in
14:49 29.0 °F 10.2 °F 1017.8 in SSW 13.0 mph 13.0 mph 31 % 0.0 in
14:54 28.8 °F 10.0 °F 1017.8 in SW 13.0 mph 13.0 mph 31 % 0.0 in
14:59 29.1 °F 10.2 °F 1017.8 in South 15.8 mph 15.8 mph 31 % 0.0 in
15:04 29.1 °F 10.2 °F 1017.8 in SW 5.6 mph 5.6 mph 31 % 0.0 in
15:09 29.4 °F 10.5 °F 1017.8 in SW 13.0 mph 13.0 mph 31 % 0.0 in
15:14 28.8 °F 10.0 °F 1017.8 in SW 9.3 mph 9.3 mph 31 % 0.0 in
15:19 28.9 °F 10.1 °F 1017.8 in SW 13.0 mph 13.0 mph 31 % 0.0 in
15:24 29.1 °F 9.8 °F 1017.8 in SW 5.8 mph 5.8 mph 30 % 0.0 in
15:29 29.3 °F 9.9 °F 1017.8 in WSW 11.1 mph 11.1 mph 30 % 0.0 in
15:34 28.9 °F 9.6 °F 1017.8 in SSW 13.0 mph 13.0 mph 30 % 0.0 in
15:39 29.2 °F 9.8 °F 1017.8 in WSW 7.9 mph 7.9 mph 30 % 0.0 in
15:44 29.1 °F 9.2 °F 1017.8 in South 13.0 mph 13.0 mph 29 % 0.0 in
15:49 29.4 °F 10.0 °F 1017.8 in SSW 13.0 mph 13.0 mph 30 % 0.0 in
15:54 28.7 °F 9.4 °F 1017.8 in WSW 9.3 mph 9.3 mph 30 % 0.0 in
15:55 28.7 °F 9.4 °F 1017.8 in SW 9.3 mph 9.3 mph 30 % 0.0 in
16:00 29.0 °F 9.2 °F 1017.8 in SW 14.0 mph 14.0 mph 29 % 0.0 in
16:05 28.8 °F 9.5 °F 1017.8 in SSW 13.0 mph 13.0 mph 30 % 0.0 in
16:10 29.1 °F 9.2 °F 1017.8 in SW 18.3 mph 18.3 mph 29 % 0.0 in
16:15 28.7 °F 9.4 °F 1017.8 in WSW 16.7 mph 16.7 mph 30 % 0.0 in
16:20 28.7 °F 9.4 °F 1016.8 in SW 13.0 mph 13.0 mph 30 % 0.0 in
16:25 28.7 °F 9.4 °F 1016.8 in South 9.3 mph 9.3 mph 30 % 0.0 in
16:30 28.9 °F 9.6 °F 1016.8 in SW 9.3 mph 9.3 mph 30 % 0.0 in
16:35 28.4 °F 9.2 °F 1015.8 in SSW 14.8 mph 14.8 mph 30 % 0.0 in
16:40 28.7 °F 9.4 °F 1015.8 in WSW 13.0 mph 13.0 mph 30 % 0.0 in
16:45 28.4 °F 9.2 °F 1015.8 in SSW 13.0 mph 13.0 mph 30 % 0.0 in
16:50 28.8 °F 9.5 °F 1016.8 in West 11.1 mph 11.1 mph 30 % 0.0 in
16:55 28.4 °F 8.7 °F 1016.8 in SW 16.7 mph 16.7 mph 29 % 0.0 in
17:00 28.1 °F 8.9 °F 1016.8 in SSW 18.5 mph 18.5 mph 30 % 0.0 in
17:05 28.7 °F 9.4 °F 1015.8 in SW 9.3 mph 9.3 mph 30 % 0.0 in
17:10 28.7 °F 9.4 °F 1015.8 in West 11.1 mph 11.1 mph 30 % 0.0 in
17:15 28.8 °F 9.5 °F 1015.8 in South 9.3 mph 9.3 mph 30 % 0.0 in
17:20 28.8 °F 9.5 °F 1016.8 in SSW 11.1 mph 11.1 mph 30 % 0.0 in
17:25 28.7 °F 9.4 °F 1016.8 in SW 14.8 mph 14.8 mph 30 % 0.0 in
17:30 28.5 °F 9.2 °F 1016.8 in SW 11.1 mph 11.1 mph 30 % 0.0 in
17:35 28.6 °F 8.8 °F 1016.8 in SSW 10.0 mph 10.0 mph 29 % 0.0 in
17:40 28.5 °F 9.2 °F 1016.8 in WSW 9.3 mph 9.3 mph 30 % 0.0 in
17:45 28.6 °F 9.3 °F 1016.8 in West 4.7 mph 4.7 mph 30 % 0.0 in
17:50 28.7 °F 9.4 °F 1015.8 in South 12.6 mph 12.6 mph 30 % 0.0 in
17:55 28.6 °F 9.3 °F 1015.8 in South 4.2 mph 4.2 mph 30 % 0.0 in
18:00 28.5 °F 8.7 °F 1015.8 in SSW 9.3 mph 9.3 mph 29 % 0.0 in
18:05 28.7 °F 9.4 °F 1015.8 in SW 11.1 mph 11.1 mph 30 % 0.0 in
18:10 28.4 °F 8.7 °F 1015.8 in ESE 3.7 mph 3.7 mph 29 % 0.0 in
18:15 27.4 °F 8.3 °F 1015.8 in SSW 7.4 mph 7.4 mph 30 % 0.0 in
18:20 27.8 °F 8.6 °F 1016.8 in SSW 7.4 mph 7.4 mph 30 % 0.0 in
18:25 28.0 °F 8.8 °F 1016.8 in SSW 7.4 mph 7.4 mph 30 % 0.0 in
18:30 27.9 °F 8.7 °F 1016.8 in SSE 3.7 mph 3.7 mph 30 % 0.0 in
18:35 27.6 °F 8.4 °F 1016.8 in SSW 7.4 mph 7.4 mph 30 % 0.0 in
18:40 27.9 °F 9.2 °F 1016.8 in WSW 7.4 mph 7.4 mph 31 % 0.0 in
18:45 27.8 °F 9.1 °F 1016.8 in SSE 7.4 mph 7.4 mph 31 % 0.0 in
18:50 27.6 °F 8.9 °F 1015.8 in SSE 7.4 mph 7.4 mph 31 % 0.0 in
18:55 27.3 °F 8.7 °F 1015.8 in WSW 13.0 mph 13.0 mph 31 % 0.0 in
19:00 27.1 °F 8.5 °F 1015.8 in SW 9.3 mph 9.3 mph 31 % 0.0 in
19:05 27.1 °F 9.0 °F 1016.8 in West 14.0 mph 14.0 mph 32 % 0.0 in
19:10 26.6 °F 8.6 °F 1016.8 in SW 13.0 mph 13.0 mph 32 % 0.0 in
19:15 26.1 °F 8.1 °F 1016.8 in SW 11.1 mph 11.1 mph 32 % 0.0 in
19:20 25.7 °F 7.8 °F 1015.8 in South 11.1 mph 11.1 mph 32 % 0.0 in
19:25 25.5 °F 7.6 °F 1015.8 in SSW 9.3 mph 9.3 mph 32 % 0.0 in
19:30 25.3 °F 7.9 °F 1015.8 in SW 9.3 mph 9.3 mph 33 % 0.0 in
19:35 25.0 °F 7.6 °F 1015.8 in West 11.1 mph 11.1 mph 33 % 0.0 in
19:40 24.9 °F 8.4 °F 1015.8 in SW 10.0 mph 10.0 mph 35 % 0.0 in
19:45 24.7 °F 8.2 °F 1015.8 in SW 7.4 mph 7.4 mph 35 % 0.0 in
19:50 24.5 °F 8.1 °F 1015.8 in SW 13.0 mph 13.0 mph 35 % 0.0 in
19:55 24.3 °F 8.3 °F 1015.8 in SW 9.3 mph 9.3 mph 36 % 0.0 in
20:00 24.1 °F 8.5 °F 1015.8 in WSW 11.1 mph 11.1 mph 37 % 0.0 in
20:05 23.9 °F 8.3 °F 1016.8 in SW 14.8 mph 14.8 mph 37 % 0.0 in
20:10 23.7 °F 8.6 °F 1016.8 in WSW 7.4 mph 7.4 mph 38 % 0.0 in
20:15 23.6 °F 8.4 °F 1016.8 in SW 11.1 mph 11.1 mph 38 % 0.0 in
20:20 23.5 °F 8.3 °F 1016.8 in SW 7.4 mph 7.4 mph 38 % 0.0 in
20:25 23.3 °F 8.6 °F 1016.8 in WSW 5.6 mph 5.6 mph 39 % 0.0 in
20:30 23.2 °F 8.8 °F 1016.8 in SSW 7.4 mph 7.4 mph 40 % 0.0 in
20:35 23.2 °F 8.8 °F 1017.8 in SW 3.7 mph 3.7 mph 40 % 0.0 in
20:40 23.0 °F 8.7 °F 1017.8 in SSW 6.4 mph 6.4 mph 40 % 0.0 in
20:45 23.0 °F 9.1 °F 1017.8 in WSW 5.6 mph 5.6 mph 41 % 0.0 in
20:50 22.9 °F 8.9 °F 1017.8 in WSW 5.8 mph 5.8 mph 41 % 0.0 in
20:55 22.9 °F 9.3 °F 1017.8 in SW 10.0 mph 10.0 mph 42 % 0.0 in
21:00 22.7 °F 9.1 °F 1017.8 in WSW 6.1 mph 6.1 mph 42 % 0.0 in
21:05 22.6 °F 9.1 °F 1017.8 in SW 7.9 mph 7.9 mph 42 % 0.0 in
21:10 22.6 °F 9.1 °F 1017.8 in WSW 5.6 mph 5.6 mph 42 % 0.0 in
21:15 22.5 °F 8.9 °F 1017.8 in SW 3.7 mph 3.7 mph 42 % 0.0 in
21:20 22.4 °F 8.8 °F 1017.8 in SW 4.2 mph 4.2 mph 42 % 0.0 in
21:25 22.2 °F 8.7 °F 1017.8 in SW 5.6 mph 5.6 mph 42 % 0.0 in
21:30 22.1 °F 8.6 °F 1017.8 in SW 3.7 mph 3.7 mph 42 % 0.0 in
21:35 22.0 °F 8.8 °F 1017.8 in SW 3.7 mph 3.7 mph 43 % 0.0 in
21:40 22.0 °F 8.8 °F 1017.8 in SW 3.9 mph 3.9 mph 43 % 0.0 in
21:45 21.8 °F 8.7 °F 1017.8 in WSW 3.5 mph   43 % 0.0 in
21:50 21.7 °F 8.6 °F 1017.8 in Calm     43 % 0.0 in
21:55 21.6 °F 8.5 °F 1017.8 in Calm     43 % 0.0 in
22:00 21.5 °F 8.4 °F 1017.8 in Calm     43 % 0.0 in
22:05 21.4 °F 8.6 °F 1017.8 in Calm     44 % 0.0 in
22:10 21.4 °F 8.6 °F 1017.8 in WSW 3.7 mph 3.7 mph 44 % 0.0 in
22:11 21.4 °F 8.6 °F 1017.8 in WSW 3.7 mph 3.7 mph 44 % 0.0 in
22:15 17.3 °F 11.1 °F 1017.8 in SW 1.6 mph 3.2 mph 67 % 0.0 in
22:16 21.3 °F 8.6 °F 1017.8 in NW 2.3 mph   44 % 0.0 in
22:21 21.2 °F 8.4 °F 1017.8 in Calm     44 % 0.0 in
22:25 17.4 °F 11.4 °F 1017.8 in Calm   3.2 mph 68 % 0.0 in
22:26 21.1 °F 8.7 °F 1017.8 in NNE 2.3 mph 2.3 mph 45 % 0.0 in
22:31 21.0 °F 8.6 °F 1017.8 in NE 3.7 mph 3.7 mph 45 % 0.0 in
22:35 17.6 °F 12.1 °F 1017.8 in Calm   3.2 mph 70 % 0.0 in
22:36 21.0 °F 8.9 °F 1016.8 in NE 1.9 mph   46 % 0.0 in
22:41 20.9 °F 9.5 °F 1016.8 in NE 2.6 mph 2.6 mph 48 % 0.0 in
22:45 17.6 °F 12.1 °F 1017.8 in Calm   3.2 mph 70 % 0.0 in
22:46 20.8 °F 10.0 °F 1016.8 in East 1.9 mph 1.9 mph 50 % 0.0 in
22:51 20.7 °F 10.2 °F 1017.8 in ENE 3.7 mph 3.7 mph 51 % 0.0 in
22:55 17.5 °F 11.7 °F 1017.8 in Calm     69 % 0.0 in
22:56 20.6 °F 10.4 °F 1017.8 in NNE 2.6 mph 2.6 mph 52 % 0.0 in
23:01 20.5 °F 10.6 °F 1017.8 in NNE 1.9 mph   53 % 0.0 in
23:05 17.4 °F 11.7 °F 1017.8 in Calm   1.6 mph 69 % 0.0 in
23:06 20.4 °F 10.8 °F 1018.8 in Calm     54 % 0.0 in
23:11 20.4 °F 10.8 °F 1018.8 in Calm     54 % 0.0 in
23:15 17.3 °F 11.8 °F 1017.8 in NE 1.6 mph 1.6 mph 70 % 0.0 in
23:16 20.3 °F 10.7 °F 1018.8 in SW 3.7 mph 3.7 mph 54 % 0.0 in
23:21 20.2 °F 10.6 °F 1017.8 in Calm     54 % 0.0 in
23:25 17.2 °F 11.7 °F 1017.8 in Calm     70 % 0.0 in
23:26 20.2 °F 10.9 °F 1017.8 in Calm     55 % 0.0 in
23:31 20.2 °F 10.9 °F 1017.8 in Calm     55 % 0.0 in
23:35 17.1 °F 11.6 °F 1016.8 in Calm   1.6 mph 70 % 0.0 in
23:36 20.1 °F 10.8 °F 1018.8 in Calm     55 % 0.0 in
23:41 20.0 °F 10.7 °F 1018.8 in SW 1.4 mph   55 % 0.0 in
23:45 17.1 °F 11.6 °F 1016.8 in Calm     70 % 0.0 in
23:46 19.9 °F 10.3 °F 1018.8 in WSW 1.9 mph   54 % 0.0 in
23:51 19.9 °F 10.1 °F 1018.8 in WNW 3.7 mph 3.7 mph 53 % 0.0 in
23:55 17.1 °F 11.6 °F 1016.8 in NE 1.6 mph 3.2 mph 70 % 0.0 in
23:56 19.8 °F 9.9 °F 1018.8 in Calm     53 % 0.0 in
Meteo Sesrovires
Elogis d' Weather Underground - 3.5 mb

Guio original per  Jim McMurry - jmcmurry@mwt.net Adaptat per a la plantilla per  Wim van der Kuil - Leuven-Template.eu

Trobareu la nostra informacio del temps tambe a:

Weather Underground

AWEKAS